Time;durP1;ratioP1;P1;durP2;ratioP2;P2;SDS_P1;SDS_P2;PMS_P1;PMS_P2;Temp;Humidity;BMP_temperature;BMP_pressure;BME280_temperature;BME280_humidity;BME280_pressure;Samples;Min_cycle;Max_cycle;Signal;HPM_P1;HPM_P2
2021/04/03 00:01:01;;;;;;;28.63;12.13;;;;;;;16.56;62.60;72425.06;4994704;28;20513;-88
2021/04/03 00:03:29;;;;;;;36.40;13.93;;;;;;;16.72;62.70;72446.41;4994555;28;20068;-87
2021/04/03 00:05:56;;;;;;;31.33;13.85;;;;;;;15.94;62.53;72359.47;4995685;28;20042;-87
2021/04/03 00:08:24;;;;;;;40.45;16.27;;;;;;;16.51;63.82;72422.47;5004441;28;20089;-89
2021/04/03 00:10:55;;;;;;;44.78;23.10;;;;;;;15.69;65.40;72330.72;4994349;28;20033;-88
2021/04/03 00:13:26;;;;;;;48.85;23.83;;;;;;;16.37;68.48;72409.09;4993994;28;20487;-85
2021/04/03 00:15:53;;;;;;;51.65;29.23;;;;;;;15.59;70.51;72319.34;4979809;28;20038;-89
2021/04/03 00:18:20;;;;;;;38.90;20.05;;;;;;;15.31;70.67;72286.47;4995818;28;20395;-85
2021/04/03 00:20:48;;;;;;;37.65;19.08;;;;;;;15.43;70.72;72300.84;4994756;28;20041;-86
2021/04/03 00:23:20;;;;;;;55.20;28.10;;;;;;;15.50;71.42;72308.59;5002265;28;20137;-88
2021/04/03 00:25:47;;;;;;;51.00;26.88;;;;;;;14.91;75.67;72237.69;5011014;28;20029;-87
2021/04/03 00:28:17;;;;;;;51.17;30.52;;;;;;;15.60;78.60;72317.19;5007032;28;20030;-86
2021/04/03 00:30:45;;;;;;;;;;;;;;;15.46;78.62;72303.81;5003167;28;20030;-83
2021/04/03 00:33:12;;;;;;;45.50;26.65;;;;;;;15.05;79.92;72256.59;4994472;28;19924;-84
2021/04/03 00:35:41;;;;;;;44.38;23.02;;;;;;;14.74;80.78;72220.75;4994034;28;20033;-86
2021/04/03 00:38:10;;;;;;;31.02;18.85;;;;;;;15.34;82.28;72290.06;4976106;28;20102;-88
2021/04/03 00:40:39;;;;;;;39.72;17.67;;;;;;;14.72;85.57;72218.31;4979348;28;20042;-86
2021/04/03 00:43:13;;;;;;;35.20;18.85;;;;;;;14.50;86.21;72191.06;4999962;28;20030;-87
2021/04/03 00:45:41;;;;;;;37.15;17.50;;;;;;;14.84;84.66;72229.91;5001257;28;20030;-92
2021/04/03 00:48:08;;;;;;;43.97;19.25;;;;;;;14.97;84.10;72244.84;4989153;28;20023;-90
2021/04/03 00:50:40;;;;;;;38.17;17.88;;;;;;;14.81;85.33;72229.13;4995478;28;20050;-87
2021/04/03 00:53:10;;;;;;;39.70;18.15;;;;;;;14.49;86.75;72192.63;5019036;28;20061;-90
2021/04/03 00:55:37;;;;;;;35.22;20.25;;;;;;;13.93;87.84;72127.53;4996494;28;20034;-88
2021/04/03 00:58:04;;;;;;;47.40;22.48;;;;;;;14.48;88.15;72190.84;5003224;28;20084;-86
2021/04/03 01:00:31;;;;;;;47.10;26.67;;;;;;;14.45;87.24;72187.84;5004098;28;20074;-88
2021/04/03 01:03:00;;;;;;;42.53;24.25;;;;;;;14.54;88.44;72198.00;4994144;28;20030;-88
2021/04/03 01:05:28;;;;;;;45.10;24.92;;;;;;;12.63;88.55;71978.28;5014423;28;20065;-90
2021/04/03 01:07:56;;;;;;;39.92;24.40;;;;;;;14.63;88.16;72208.75;5004230;28;20049;-88
2021/04/03 01:10:28;;;;;;;54.95;27.42;;;;;;;14.77;89.83;72224.31;5022957;28;20026;-90
2021/04/03 01:13:34;;;;;;;54.65;31.38;;;;;;;14.78;90.18;72226.13;5007825;28;20479;-89
2021/04/03 01:16:05;;;;;;;54.70;33.55;;;;;;;14.75;91.37;72222.53;5029402;28;20030;-89
2021/04/03 01:18:47;;;;;;;58.70;33.80;;;;;;;14.76;92.19;72223.72;5020172;28;20038;-92
2021/04/03 01:21:32;;;;;;;52.33;29.80;;;;;;;14.67;93.21;72212.34;5018557;28;20033;-89
2021/04/03 01:24:26;;;;;;;55.45;31.35;;;;;;;13.87;93.73;72120.97;5006599;28;20133;-86
2021/04/03 01:27:11;;;;;;;46.80;26.08;;;;;;;14.23;93.37;72162.16;5014207;28;20034;-84
2021/04/03 01:29:53;;;;;;;50.85;24.63;;;;;;;14.32;93.99;72172.34;5016672;28;20083;-83
2021/04/03 01:32:30;;;;;;;40.53;24.75;;;;;;;14.40;94.39;72184.66;5019671;28;20029;-89
2021/04/03 01:35:01;;;;;;;41.15;25.63;;;;;;;14.01;95.60;72137.09;5011787;28;20084;-93
2021/04/03 01:37:30;;;;;;;45.53;27.17;;;;;;;14.41;95.93;72182.47;5023226;28;20030;-92
2021/04/03 01:39:58;;;;;;;53.03;30.33;;;;;;;14.18;96.18;72156.81;5029626;28;20097;-91
2021/04/03 01:42:36;;;;;;;48.17;29.08;;;;;;;13.73;96.79;72104.84;5008203;28;20030;-93
2021/04/03 01:45:07;;;;;;;54.58;32.08;;;;;;;14.51;98.14;72194.44;5006578;28;20045;-91
2021/04/03 01:47:39;;;;;;;46.90;27.67;;;;;;;14.35;99.60;72175.91;5007736;28;20029;-94
2021/04/03 01:50:13;;;;;;;43.35;26.13;;;;;;;13.42;99.63;72069.00;5010057;28;20022;-93
2021/04/03 01:52:41;;;;;;;48.30;26.27;;;;;;;14.15;100.00;72152.63;4992621;28;20111;-89
2021/04/03 01:55:13;;;;;;;42.20;24.35;;;;;;;14.17;100.00;72155.59;4993889;28;20065;-89
2021/04/03 01:57:45;;;;;;;43.65;25.05;;;;;;;14.20;100.00;72158.59;4993398;28;20027;-91
2021/04/03 02:00:22;;;;;;;48.22;26.38;;;;;;;14.07;100.00;72141.50;4991826;28;20034;-87
2021/04/03 02:02:49;;;;;;;57.60;28.05;;;;;;;14.25;100.00;72163.97;4989988;28;20041;-93
2021/04/03 02:05:17;;;;;;;42.15;28.05;;;;;;;13.55;100.00;72083.94;4996780;28;20034;-93
2021/04/03 02:07:47;;;;;;;37.92;24.83;;;;;;;12.88;99.65;72006.94;4985572;28;20039;-87
2021/04/03 02:10:17;;;;;;;52.35;27.65;;;;;;;13.75;100.00;72106.63;4989448;28;20109;-94
2021/04/03 02:12:46;;;;;;;40.28;22.55;;;;;;;13.52;100.00;72080.97;4994287;28;20121;-91
2021/04/03 02:15:15;;;;;;;42.25;25.27;;;;;;;14.14;100.00;72151.44;4993259;28;20403;-89
2021/04/03 02:17:48;;;;;;;33.90;21.60;;;;;;;13.27;100.00;72052.28;4993418;28;20066;-88
2021/04/03 02:20:16;;;;;;;32.22;22.92;;;;;;;14.05;100.00;72141.88;4986690;28;20088;-92
2021/04/03 02:22:47;;;;;;;36.22;22.20;;;;;;;13.10;100.00;72029.22;5000165;28;20046;-94
2021/04/03 02:25:16;;;;;;;38.78;21.70;;;;;;;13.67;100.00;72095.50;4995131;28;20027;-87
2021/04/03 02:27:45;;;;;;;44.60;27.95;;;;;;;13.68;100.00;72098.88;4990259;28;20026;-89
2021/04/03 02:30:19;;;;;;;40.85;24.85;;;;;;;13.96;100.00;72131.72;4997775;28;20555;-84
2021/04/03 02:32:49;;;;;;;44.70;28.65;;;;;;;13.12;100.00;72031.63;4984519;28;20076;-84
2021/04/03 02:35:17;;;;;;;54.33;38.90;;;;;;;13.87;100.00;72120.38;4991899;28;20836;-91
2021/04/03 02:37:47;;;;;;;56.15;35.33;;;;;;;13.95;100.00;72129.91;4993223;28;20030;-90
2021/04/03 02:40:18;;;;;;;65.82;32.53;;;;;;;13.98;100.00;72133.50;4990791;28;20053;-86
2021/04/03 02:43:21;;;;;;;44.03;30.38;;;;;;;13.96;100.00;72131.72;4991834;28;20440;-86
2021/04/03 02:45:59;;;;;;;42.80;25.35;;;;;;;13.93;100.00;72127.53;4991553;28;20027;-87
2021/04/03 02:48:30;;;;;;;48.15;25.98;;;;;;;13.85;100.00;72117.97;4990653;28;20103;-87
2021/04/03 02:51:01;;;;;;;39.25;26.00;;;;;;;13.93;100.00;72128.13;4995962;28;20029;-89
2021/04/03 02:53:33;;;;;;;32.20;24.13;;;;;;;14.04;100.00;72140.66;5002871;28;20042;-94
2021/04/03 02:56:05;;;;;;;38.33;22.83;;;;;;;14.01;100.00;72137.09;5007015;28;20037;-90
2021/04/03 02:58:36;;;;;;;33.55;23.63;;;;;;;13.74;100.00;72106.03;5007954;28;20032;-96
2021/04/03 03:01:23;;;;;;;28.75;18.48;;;;;;;13.91;100.00;72125.72;5018142;28;20038;-94
2021/04/03 03:03:52;;;;;;;32.42;19.88;;;;;;;13.92;100.00;72126.94;4983447;28;20125;-87
2021/04/03 03:06:20;;;;;;;27.45;19.27;;;;;;;13.92;100.00;72126.34;5020321;28;20025;-88
2021/04/03 03:08:48;;;;;;;31.83;21.63;;;;;;;13.91;100.00;72125.72;5004563;28;20030;-90
2021/04/03 03:11:18;;;;;;;34.15;20.83;;;;;;;13.83;100.00;72116.19;4999344;28;20030;-87
2021/04/03 03:13:47;;;;;;;28.60;20.17;;;;;;;14.07;100.00;72144.25;5016682;28;20797;-90
2021/04/03 03:16:20;;;;;;;39.13;22.02;;;;;;;13.92;100.00;72126.34;4999942;28;20037;-91
2021/04/03 03:18:48;;;;;;;31.45;21.02;;;;;;;13.11;100.00;72033.19;5007350;28;20078;-93
2021/04/03 03:21:15;;;;;;;28.90;19.88;;;;;;;13.27;100.00;72052.28;4999754;28;20117;-88
2021/04/03 03:23:43;;;;;;;35.15;21.83;;;;;;;13.56;100.00;72085.16;4990857;28;20014;-89
2021/04/03 03:26:10;;;;;;;28.38;20.65;;;;;;;13.45;100.00;72072.59;5005706;28;20026;-90
2021/04/03 03:28:39;;;;;;;30.52;23.10;;;;;;;13.45;100.00;72072.59;4995979;28;20096;-82
2021/04/03 03:31:06;;;;;;;29.07;23.57;;;;;;;12.40;100.00;71952.03;5003261;28;20041;-86
2021/04/03 03:33:33;;;;;;;24.45;20.73;;;;;;;12.55;100.00;71968.75;4997666;28;20034;-87
2021/04/03 03:36:01;;;;;;;28.67;22.33;;;;;;;13.81;100.00;72114.38;4988154;28;20113;-85
2021/04/03 03:38:28;;;;;;;26.17;19.98;;;;;;;12.85;100.00;72000.59;4997204;28;20018;-89
2021/04/03 03:40:55;;;;;;;21.35;18.65;;;;;;;13.36;100.00;72059.06;5004606;28;20049;-85
2021/04/03 03:43:23;;;;;;;25.45;19.23;;;;;;;13.36;100.00;72061.81;5024646;28;20133;-85
2021/04/03 03:45:50;;;;;;;22.58;18.95;;;;;;;13.68;100.00;72096.13;5000286;28;20026;-87
2021/04/03 03:48:17;;;;;;;26.15;19.02;;;;;;;13.38;100.00;72064.81;4979299;28;20514;-83
2021/04/03 03:50:44;;;;;;;25.23;20.15;;;;;;;12.90;100.00;72009.31;5001635;28;20038;-83
2021/04/03 03:53:11;;;;;;;22.42;18.27;;;;;;;12.20;100.00;71928.19;5011706;28;20042;-84
2021/04/03 03:55:38;;;;;;;22.95;19.58;;;;;;;12.78;100.00;71995.59;5010300;28;20030;-83
2021/04/03 03:58:04;;;;;;;19.70;17.60;;;;;;;13.41;100.00;72068.41;4992074;28;20101;-89
2021/04/03 04:00:31;;;;;;;23.70;19.13;;;;;;;13.35;100.00;72057.88;5001695;28;20037;-84
2021/04/03 04:02:58;;;;;;;22.23;18.13;;;;;;;13.44;100.00;72070.78;4999046;28;20034;-85
2021/04/03 04:05:25;;;;;;;21.88;19.65;;;;;;;13.02;100.00;72022.44;4991860;28;20498;-86
2021/04/03 04:07:52;;;;;;;25.30;20.17;;;;;;;13.34;100.00;72059.44;5009757;28;20029;-80
2021/04/03 04:10:19;;;;;;;19.58;16.92;;;;;;;13.43;100.00;72070.19;5008540;28;20022;-90
2021/04/03 04:12:46;;;;;;;18.30;16.20;;;;;;;13.09;100.00;72031.38;4993198;28;20030;-83
2021/04/03 04:15:13;;;;;;;26.83;20.27;;;;;;;13.10;100.00;72032.00;5010253;28;20022;-85
2021/04/03 04:17:40;;;;;;;28.02;22.08;;;;;;;12.47;100.00;71959.78;4995237;28;20022;-85
2021/04/03 04:20:07;;;;;;;23.95;18.38;;;;;;;12.76;100.00;71992.63;4996237;28;21008;-83
2021/04/03 04:22:34;;;;;;;19.90;17.23;;;;;;;13.08;100.00;72024.09;4996885;28;20034;-86
2021/04/03 04:25:01;;;;;;;19.60;16.73;;;;;;;12.11;100.00;71918.03;4997605;28;20030;-89
2021/04/03 04:27:28;;;;;;;18.70;15.80;;;;;;;13.64;100.00;72094.09;5002642;28;20121;-89
2021/04/03 04:29:55;;;;;;;16.08;14.13;;;;;;;13.41;100.00;72067.81;4997298;28;20026;-86
2021/04/03 04:32:21;;;;;;;14.70;10.95;;;;;;;12.88;100.00;72006.94;5001006;28;20033;-85
2021/04/03 04:34:48;;;;;;;13.68;12.02;;;;;;;13.51;100.00;72079.78;5010997;28;20032;-88
2021/04/03 04:37:15;;;;;;;13.10;11.73;;;;;;;13.49;100.00;72076.78;4997604;28;20033;-88
2021/04/03 04:39:42;;;;;;;13.93;11.25;;;;;;;13.01;100.00;72021.84;5013896;28;20022;-83
2021/04/03 04:42:09;;;;;;;12.90;11.32;;;;;;;13.56;100.00;72085.16;5000344;28;20561;-89
2021/04/03 04:44:36;;;;;;;12.60;11.40;;;;;;;12.94;100.00;72014.09;4995466;28;20034;-84
2021/04/03 04:47:03;;;;;;;16.13;14.43;;;;;;;12.24;100.00;71932.97;4996184;28;20026;-85
2021/04/03 04:49:30;;;;;;;16.23;13.27;;;;;;;12.64;100.00;71976.72;5011322;28;20022;-88
2021/04/03 04:51:57;;;;;;;14.20;11.45;;;;;;;12.48;100.00;71960.41;5013310;28;20070;-87
2021/04/03 04:54:24;;;;;;;11.68;9.55;;;;;;;12.79;100.00;71996.78;5009919;28;20026;-87
2021/04/03 04:56:50;;;;;;;13.07;8.80;;;;;;;12.57;100.00;71971.72;4996178;28;20038;-86
2021/04/03 04:59:17;;;;;;;11.85;10.05;;;;;;;13.09;100.00;72030.81;4996191;28;20025;-85
2021/04/03 05:01:44;;;;;;;10.48;9.48;;;;;;;12.31;100.00;71941.31;4995750;28;20030;-86
2021/04/03 05:04:11;;;;;;;12.80;11.55;;;;;;;13.42;100.00;72069.00;4995564;28;20107;-86
2021/04/03 05:06:38;;;;;;;12.73;11.52;;;;;;;12.48;100.00;71960.41;4999094;28;20088;-87
2021/04/03 05:09:05;;;;;;;14.40;12.50;;;;;;;13.42;100.00;72069.00;5019704;28;20116;-86
2021/04/03 05:11:31;;;;;;;14.77;13.05;;;;;;;12.79;100.00;71996.19;5005032;28;20018;-89
2021/04/03 05:13:58;;;;;;;16.38;13.38;;;;;;;13.26;100.00;72050.50;5001150;28;20092;-88
2021/04/03 05:16:25;;;;;;;16.88;15.07;;;;;;;12.96;100.00;72016.47;4999924;28;20092;-87
2021/04/03 05:18:52;;;;;;;21.92;16.73;;;;;;;12.97;100.00;72017.66;5017195;28;20597;-88
2021/04/03 05:21:19;;;;;;;17.30;15.57;;;;;;;13.41;100.00;72067.81;5003842;28;20030;-89
2021/04/03 05:23:46;;;;;;;18.13;16.25;;;;;;;13.00;100.00;72020.66;4999895;28;20533;-87
2021/04/03 05:26:12;;;;;;;19.40;15.70;;;;;;;12.40;100.00;71949.28;5002107;28;20038;-85
2021/04/03 05:28:39;;;;;;;20.90;18.77;;;;;;;12.52;100.00;71965.75;4999219;28;20022;-87
2021/04/03 05:31:06;;;;;;;21.55;18.77;;;;;;;12.15;100.00;71920.66;5016161;28;20510;-85
2021/04/03 05:33:33;;;;;;;24.63;19.40;;;;;;;13.03;100.00;72024.25;5004184;28;20072;-87
2021/04/03 05:36:00;;;;;;;20.95;18.73;;;;;;;13.65;100.00;72095.88;5010236;28;20454;-91
2021/04/03 05:38:27;;;;;;;21.45;19.17;;;;;;;12.76;100.00;71992.63;5002527;28;20109;-86
2021/04/03 05:40:53;;;;;;;20.60;17.67;;;;;;;13.40;100.00;72066.59;5017728;28;20036;-85
2021/04/03 05:43:21;;;;;;;22.65;18.88;;;;;;;13.79;100.00;72109.25;4997391;28;20513;-87
2021/04/03 05:45:53;;;;;;;21.85;19.63;;;;;;;12.85;100.00;72003.34;5013670;28;20030;-88
2021/04/03 05:48:23;;;;;;;18.08;15.35;;;;;;;13.02;100.00;72022.44;4997299;28;20038;-88
2021/04/03 05:50:55;;;;;;;23.63;19.15;;;;;;;12.85;100.00;72003.34;4995683;28;20119;-85
2021/04/03 05:53:23;;;;;;;18.55;16.65;;;;;;;13.85;100.00;72117.97;4991987;28;20046;-87
2021/04/03 05:55:57;;;;;;;25.17;19.40;;;;;;;13.87;100.00;72117.59;4994835;28;20030;-86
2021/04/03 05:58:25;;;;;;;21.58;16.88;;;;;;;13.84;100.00;72116.78;4995209;28;20025;-89
2021/04/03 06:00:54;;;;;;;22.90;18.48;;;;;;;13.68;100.00;72098.88;4997450;28;20498;-86
2021/04/03 06:03:21;;;;;;;19.10;16.27;;;;;;;13.06;100.00;72027.22;5011177;28;20018;-88
2021/04/03 06:05:53;;;;;;;17.15;15.27;;;;;;;13.92;100.00;72126.34;5025959;28;20080;-86
2021/04/03 06:08:21;;;;;;;20.77;15.23;;;;;;;13.68;100.00;72099.47;4992486;28;20038;-89
2021/04/03 06:11:16;;;;;;;18.15;15.70;;;;;;;13.87;100.00;72120.38;4993154;28;20069;-89
2021/04/03 06:14:02;;;;;;;21.02;16.55;;;;;;;13.43;100.00;72070.19;4998994;28;20098;-88
2021/04/03 06:16:38;;;;;;;28.58;16.98;;;;;;;13.48;100.00;72075.59;5008591;28;20030;-89
2021/04/03 06:19:11;;;;;;;17.55;14.45;;;;;;;13.37;100.00;72060.28;5011519;28;20026;-89
2021/04/03 06:21:43;;;;;;;20.15;14.95;;;;;;;12.68;100.00;71984.25;5009511;28;20021;-84
2021/04/03 06:24:26;;;;;;;17.05;15.25;;;;;;;13.45;100.00;72072.59;4995419;28;20033;-81
2021/04/03 06:26:53;;;;;;;19.50;15.77;;;;;;;13.87;100.00;72120.97;4999288;28;20026;-83
2021/04/03 06:29:40;;;;;;;16.63;14.50;;;;;;;13.82;100.00;72115.59;5002327;28;20094;-84
2021/04/03 06:32:23;;;;;;;17.30;13.43;;;;;;;12.73;100.00;71990.22;4995575;28;20492;-83
2021/04/03 06:34:53;;;;;;;17.30;14.52;;;;;;;13.06;100.00;72027.81;4989804;28;20042;-83
2021/04/03 06:37:37;;;;;;;17.20;14.30;;;;;;;13.48;100.00;72076.19;4991905;28;20495;-83
2021/04/03 06:40:12;;;;;;;19.20;14.20;;;;;;;13.79;100.00;72112.00;4990589;28;20026;-82
2021/04/03 06:42:57;;;;;;;17.38;14.38;;;;;;;13.78;100.00;72110.19;4991397;28;20038;-83
2021/04/03 06:45:32;;;;;;;17.52;13.88;;;;;;;13.33;100.00;72058.25;4991296;28;20037;-82
2021/04/03 06:48:09;;;;;;;16.13;12.95;;;;;;;12.59;100.00;71973.50;4984116;28;20117;-80
2021/04/03 06:50:47;;;;;;;19.50;14.10;;;;;;;13.80;100.00;72113.19;4986057;28;20130;-80
2021/04/03 06:53:16;;;;;;;19.35;13.23;;;;;;;13.59;100.00;72088.13;5006120;28;20557;-83
2021/04/03 06:55:47;;;;;;;18.25;13.57;;;;;;;12.81;100.00;71998.56;5009969;28;20044;-83
2021/04/03 06:58:14;;;;;;;15.45;12.35;;;;;;;13.43;100.00;72070.19;4993116;28;20029;-82
2021/04/03 07:00:42;;;;;;;15.75;12.77;;;;;;;13.18;100.00;72040.97;4999285;28;20128;-90
2021/04/03 07:03:15;;;;;;;13.68;11.82;;;;;;;13.91;100.00;72125.16;5008587;28;20061;-86
2021/04/03 07:05:44;;;;;;;12.95;11.38;;;;;;;12.66;100.00;71981.88;4992671;28;20171;-84
2021/04/03 07:08:11;;;;;;;15.32;13.02;;;;;;;12.86;100.00;72001.78;4992955;28;20084;-84
2021/04/03 07:10:40;;;;;;;13.23;11.38;;;;;;;13.07;100.00;72028.41;4992333;28;20032;-84
2021/04/03 07:13:10;;;;;;;14.77;11.52;;;;;;;13.34;100.00;72059.44;5011673;28;20375;-84
2021/04/03 07:15:37;;;;;;;11.70;10.40;;;;;;;13.07;100.00;72028.41;4993500;28;20391;-84
2021/04/03 07:18:07;;;;;;;17.98;11.18;;;;;;;13.94;100.00;72128.72;4993944;28;20030;-86
2021/04/03 07:20:35;;;;;;;10.77;9.70;;;;;;;13.99;100.00;72134.69;4992843;28;20065;-83
2021/04/03 07:23:03;;;;;;;13.82;10.45;;;;;;;13.87;100.00;72120.97;4993971;28;20041;-84
2021/04/03 07:25:42;;;;;;;12.23;10.35;;;;;;;13.64;100.00;72094.09;5013196;28;20033;-84
2021/04/03 07:28:11;;;;;;;10.30;8.27;;;;;;;13.70;100.00;72101.25;4993950;28;20053;-84
2021/04/03 07:30:39;;;;;;;12.50;8.35;;;;;;;13.85;100.00;72117.97;4993732;28;20029;-83
2021/04/03 07:33:13;;;;;;;13.10;9.30;;;;;;;13.93;100.00;72127.53;5011137;28;20033;-84
2021/04/03 07:35:50;;;;;;;10.35;8.88;;;;;;;13.89;100.00;72122.75;5010959;28;20095;-84
2021/04/03 07:38:23;;;;;;;9.88;8.88;;;;;;;12.86;100.00;72004.53;4993734;28;20842;-84
2021/04/03 07:41:01;;;;;;;7.90;7.15;;;;;;;13.46;100.00;72073.81;5007175;28;20079;-86
2021/04/03 07:43:40;;;;;;;9.95;8.95;;;;;;;13.86;100.00;72119.16;5010146;28;20503;-84
2021/04/03 07:46:13;;;;;;;9.60;8.70;;;;;;;13.50;100.00;72078.56;4986927;28;20403;-82
2021/04/03 07:48:41;;;;;;;10.45;9.50;;;;;;;13.95;100.00;72129.91;5010803;28;20022;-84
2021/04/03 07:51:10;;;;;;;9.55;8.48;;;;;;;12.69;100.00;71985.47;4994789;28;20049;-83
2021/04/03 07:53:48;;;;;;;13.73;9.25;;;;;;;12.84;100.00;72002.16;5015807;28;20402;-85
2021/04/03 07:56:18;;;;;;;10.63;8.70;;;;;;;13.56;100.00;72085.16;5012845;28;20434;-84
2021/04/03 07:58:53;;;;;;;8.25;7.45;;;;;;;13.92;100.00;72126.34;5013438;28;20038;-85
2021/04/03 08:01:24;;;;;;;11.27;9.48;;;;;;;13.03;100.00;72023.63;4995464;28;20129;-84
2021/04/03 08:03:56;;;;;;;11.05;9.95;;;;;;;14.07;100.00;72143.66;4996337;28;20057;-84
2021/04/03 08:06:37;;;;;;;15.13;11.32;;;;;;;13.43;100.00;72064.06;5013886;28;20048;-83
2021/04/03 08:09:13;;;;;;;12.57;11.27;;;;;;;13.07;100.00;72028.41;5006221;28;20026;-83
2021/04/03 08:11:43;;;;;;;10.43;9.27;;;;;;;13.89;100.00;72119.97;5012119;28;20041;-84
2021/04/03 08:14:17;;;;;;;11.65;10.52;;;;;;;14.02;100.00;72138.28;5013840;28;20061;-83
2021/04/03 08:16:47;;;;;;;10.82;9.15;;;;;;;14.02;100.00;72138.28;4986914;28;20041;-84
2021/04/03 08:19:14;;;;;;;11.45;9.95;;;;;;;13.54;100.00;72083.34;4975665;28;20092;-84
2021/04/03 08:21:45;;;;;;;11.13;9.95;;;;;;;13.32;100.00;72057.06;5009809;28;20445;-84
2021/04/03 08:24:13;;;;;;;12.43;10.35;;;;;;;12.47;100.00;71959.22;4993571;28;20060;-84
2021/04/03 08:26:42;;;;;;;12.02;10.20;;;;;;;13.07;100.00;72029.00;4989923;28;20032;-83
2021/04/03 08:29:32;;;;;;;11.55;10.32;;;;;;;13.13;100.00;72035.56;5003575;28;20026;-85
2021/04/03 08:32:01;;;;;;;11.38;10.27;;;;;;;13.66;100.00;72096.47;4997209;28;20030;-86
2021/04/03 08:34:28;;;;;;;10.98;9.60;;;;;;;12.98;100.00;72018.88;4996334;28;20106;-85
2021/04/03 08:36:55;;;;;;;11.35;10.23;;;;;;;13.92;100.00;72126.34;5012458;28;20033;-86
2021/04/03 08:39:24;;;;;;;13.60;10.38;;;;;;;14.04;100.00;72140.06;4998736;28;20509;-87
2021/04/03 08:41:55;;;;;;;10.82;9.82;;;;;;;13.67;100.00;72098.28;5000202;28;20034;-85
2021/04/03 08:44:24;;;;;;;11.95;10.75;;;;;;;13.26;100.00;72048.31;5000072;28;20037;-85
2021/04/03 08:46:59;;;;;;;12.97;11.53;;;;;;;14.08;100.00;72144.84;4999583;28;20026;-87
2021/04/03 08:49:34;;;;;;;14.48;13.00;;;;;;;13.75;100.00;72107.25;5000739;28;20472;-87
2021/04/03 08:52:01;;;;;;;15.57;13.98;;;;;;;13.55;100.00;72084.53;5022191;28;20079;-86
2021/04/03 08:54:39;;;;;;;18.67;16.02;;;;;;;14.10;100.00;72147.25;4997120;28;20030;-83
2021/04/03 08:57:26;;;;;;;16.17;14.23;;;;;;;14.02;100.00;72138.28;4992282;28;20088;-85
2021/04/03 08:59:56;;;;;;;13.38;11.98;;;;;;;13.33;100.00;72058.25;5003937;28;20033;-86
2021/04/03 09:02:23;;;;;;;15.00;13.45;;;;;;;13.66;100.00;72096.47;4997798;28;20025;-81
2021/04/03 09:04:50;;;;;;;13.52;12.02;;;;;;;13.99;100.00;72134.69;5000817;28;20069;-89
2021/04/03 09:07:33;;;;;;;13.30;12.02;;;;;;;13.97;100.00;72132.31;5002454;28;20387;-85
2021/04/03 09:10:17;;;;;;;14.55;12.90;;;;;;;13.91;100.00;72125.72;5011431;28;20121;-85
2021/04/03 09:12:45;;;;;;;17.25;14.07;;;;;;;13.09;100.00;72025.28;4983310;28;20022;-86
2021/04/03 09:15:14;;;;;;;14.75;13.25;;;;;;;13.26;100.00;72050.50;4991107;28;20878;-82
2021/04/03 09:17:53;;;;;;;16.70;14.60;;;;;;;13.09;100.00;72030.81;5014679;28;20104;-82
2021/04/03 09:20:22;;;;;;;17.92;14.50;;;;;;;12.37;100.00;71948.44;5003804;28;20034;-82
2021/04/03 09:22:53;;;;;;;16.40;14.82;;;;;;;13.88;100.00;72122.16;5028100;28;20025;-83
2021/04/03 09:25:22;;;;;;;17.85;16.02;;;;;;;12.95;100.00;72015.28;5031506;28;20018;-88
2021/04/03 09:28:11;;;;;;;17.98;15.65;;;;;;;13.89;100.00;72122.75;5011648;28;20057;-87
2021/04/03 09:30:41;;;;;;;19.92;15.07;;;;;;;13.65;100.00;72095.28;4989963;28;20041;-84
2021/04/03 09:33:25;;;;;;;18.58;15.40;;;;;;;13.60;100.00;72087.16;5009205;28;20800;-86
2021/04/03 09:35:53;;;;;;;20.45;16.50;;;;;;;12.64;100.00;71978.88;4991126;28;20491;-85
2021/04/03 09:38:37;;;;;;;17.48;15.13;;;;;;;13.34;100.00;72056.69;4994144;28;20022;-85
2021/04/03 09:41:20;;;;;;;16.58;14.13;;;;;;;12.44;100.00;71954.03;5009775;28;20033;-84
2021/04/03 09:43:47;;;;;;;16.98;15.18;;;;;;;12.50;100.00;71963.38;5009973;28;20052;-84
2021/04/03 09:46:14;;;;;;;17.35;15.40;;;;;;;12.33;100.00;71943.69;5009957;28;20030;-84
2021/04/03 09:48:45;;;;;;;19.67;16.65;;;;;;;13.28;100.00;72052.88;4995174;28;20037;-84
2021/04/03 09:51:12;;;;;;;21.77;17.17;;;;;;;13.83;100.00;72116.19;5001321;28;20480;-85
2021/04/03 09:53:39;;;;;;;19.55;17.35;;;;;;;12.93;100.00;72012.91;5016279;28;20058;-84
2021/04/03 09:56:07;;;;;;;20.13;17.15;;;;;;;13.45;100.00;72071.97;4999553;28;20487;-84
2021/04/03 09:58:33;;;;;;;21.42;18.48;;;;;;;13.08;100.00;72029.59;5010845;28;20026;-84
2021/04/03 10:01:00;;;;;;;21.75;18.85;;;;;;;13.34;100.00;72056.69;5021468;28;20026;-86
2021/04/03 10:03:27;;;;;;;20.65;17.80;;;;;;;13.11;100.00;72033.19;5008082;28;20021;-84
2021/04/03 10:05:54;;;;;;;21.33;18.38;;;;;;;13.85;100.00;72118.56;4986699;28;20037;-85
2021/04/03 10:08:21;;;;;;;21.05;18.77;;;;;;;13.14;100.00;72036.78;5002694;28;20480;-82
2021/04/03 10:10:51;;;;;;;20.42;18.33;;;;;;;13.60;100.00;72089.91;4999140;28;20588;-85
2021/04/03 10:13:18;;;;;;;22.13;19.73;;;;;;;12.43;100.00;71955.63;5006139;28;20434;-82
2021/04/03 10:15:48;;;;;;;21.38;19.20;;;;;;;13.03;100.00;72023.63;4989140;28;20113;-85
2021/04/03 10:18:14;;;;;;;22.15;20.00;;;;;;;12.85;100.00;72003.34;4991785;28;20042;-84
2021/04/03 10:20:43;;;;;;;22.85;20.40;;;;;;;13.30;100.00;72051.91;4993549;28;20573;-82
2021/04/03 10:23:10;;;;;;;23.58;20.80;;;;;;;12.89;100.00;72007.53;5009618;28;20033;-83
2021/04/03 10:25:37;;;;;;;23.15;20.73;;;;;;;13.47;100.00;72071.63;4984943;28;20642;-84
2021/04/03 10:28:04;;;;;;;23.52;21.13;;;;;;;12.36;100.00;71946.69;4993300;28;20026;-86
2021/04/03 10:30:31;;;;;;;21.35;19.05;;;;;;;13.16;100.00;72038.56;4993293;28;20029;-85
2021/04/03 10:32:58;;;;;;;23.08;20.77;;;;;;;12.60;100.00;71974.69;4993439;28;20116;-85
2021/04/03 10:35:25;;;;;;;23.20;20.77;;;;;;;13.07;100.00;72029.00;4991847;28;20030;-83
2021/04/03 10:37:52;;;;;;;23.45;21.15;;;;;;;13.25;100.00;72049.31;4989290;28;20029;-84
2021/04/03 10:40:19;;;;;;;24.92;22.42;;;;;;;13.25;100.00;72049.91;4987142;28;20037;-84
2021/04/03 10:42:46;;;;;;;24.48;21.77;;;;;;;12.82;100.00;71999.75;5011205;28;20105;-84
2021/04/03 10:45:13;;;;;;;24.08;21.30;;;;;;;13.24;100.00;72048.72;5010690;28;20052;-84
2021/04/03 10:47:40;;;;;;;22.50;20.30;;;;;;;12.47;100.00;71956.44;5013472;28;20037;-84
2021/04/03 10:50:07;;;;;;;22.13;19.88;;;;;;;13.55;100.00;72084.53;4995001;28;20375;-84
2021/04/03 10:52:35;;;;;;;22.92;20.63;;;;;;;12.57;100.00;71971.72;4985317;28;20053;-84
2021/04/03 10:55:02;;;;;;;21.27;19.00;;;;;;;13.11;100.00;72033.78;5010475;28;20061;-84
2021/04/03 10:57:29;;;;;;;18.17;16.48;;;;;;;12.72;100.00;71989.03;5009071;28;20394;-85
2021/04/03 10:59:56;;;;;;;18.00;16.30;;;;;;;12.56;100.00;71969.94;5010436;28;20022;-83
2021/04/03 11:02:23;;;;;;;16.48;14.88;;;;;;;12.42;100.00;71954.41;5010562;28;20010;-84
2021/04/03 11:04:52;;;;;;;14.05;12.75;;;;;;;12.21;100.00;71929.38;5009163;28;20069;-84
2021/04/03 11:07:19;;;;;;;13.13;12.02;;;;;;;12.59;100.00;71974.13;4992405;28;20034;-84
2021/04/03 11:09:46;;;;;;;12.95;11.75;;;;;;;13.04;100.00;72024.81;4989484;28;20509;-83
2021/04/03 11:12:14;;;;;;;13.50;12.20;;;;;;;12.52;100.00;71965.75;4986648;28;20384;-84
2021/04/03 11:14:42;;;;;;;13.30;12.10;;;;;;;13.05;100.00;72026.00;4992607;28;20030;-83
2021/04/03 11:17:10;;;;;;;13.25;12.10;;;;;;;12.77;100.00;71991.06;5000363;28;20022;-84
2021/04/03 11:19:37;;;;;;;13.77;12.48;;;;;;;12.68;100.00;71984.25;5003559;28;20101;-83
2021/04/03 11:22:04;;;;;;;14.40;13.05;;;;;;;12.59;100.00;71973.50;5003183;28;20026;-84
2021/04/03 11:24:33;;;;;;;10.68;9.77;;;;;;;12.65;100.00;71980.66;4988786;28;20399;-82
2021/04/03 11:27:01;;;;;;;10.57;9.63;;;;;;;13.10;100.00;72032.00;4984703;28;20065;-85